Time;durP1;ratioP1;P1;durP2;ratioP2;P2;SDS_P1;SDS_P2;PMS_P1;PMS_P2;Temp;Humidity;BMP_temperature;BMP_pressure;BME280_temperature;BME280_humidity;BME280_pressure;Samples;Min_cycle;Max_cycle;Signal;HPM_P1;HPM_P2
2022/02/06 00:00:11;;;;;;;8.55;1.85;;;25.50;99.90;;;;;;5075231;28;20469;-76
2022/02/06 00:02:43;;;;;;;8.30;1.60;;;25.70;99.90;;;;;;5073887;28;20021;-79
2022/02/06 00:05:11;;;;;;;7.65;1.55;;;25.90;99.90;;;;;;5075080;28;20050;-80
2022/02/06 00:07:39;;;;;;;6.38;1.42;;;26.00;99.90;;;;;;5073594;28;20032;-77
2022/02/06 00:10:08;;;;;;;6.93;1.40;;;26.20;99.90;;;;;;5074979;28;20024;-77
2022/02/06 00:12:35;;;;;;;9.80;1.60;;;26.20;99.90;;;;;;5074459;28;20028;-75
2022/02/06 00:15:03;;;;;;;10.73;1.60;;;26.50;99.90;;;;;;5073213;28;20078;-76
2022/02/06 00:17:31;;;;;;;6.97;1.70;;;26.60;99.90;;;;;;5074291;28;20492;-76
2022/02/06 00:19:59;;;;;;;7.82;1.70;;;27.10;99.90;;;;;;5074471;28;20072;-77
2022/02/06 00:23:13;;;;;;;8.85;1.67;;;27.20;99.90;;;;;;5073163;28;20085;-77
2022/02/06 00:30:42;;;;;;;9.27;1.83;;;26.30;99.90;;;;;;5074688;28;20448;-76
2022/02/06 00:33:34;;;;;;;6.13;1.92;;;25.90;99.90;;;;;;5073455;28;20402;-77
2022/02/06 00:39:05;;;;;;;9.98;1.80;;;25.80;99.90;;;;;;5074431;28;20034;-76
2022/02/06 00:41:34;;;;;;;8.30;1.73;;;25.80;99.90;;;;;;5073053;28;20138;-75
2022/02/06 00:44:04;;;;;;;7.93;1.60;;;25.70;99.90;;;;;;5074402;28;20017;-76
2022/02/06 00:46:36;;;;;;;8.38;1.45;;;25.90;99.90;;;;;;5074259;28;20025;-76
2022/02/06 00:49:22;;;;;;;7.82;1.60;;;26.50;99.90;;;;;;5072746;28;20035;-76
2022/02/06 00:52:07;;;;;;;9.10;1.38;;;26.60;99.90;;;;;;5072837;28;20032;-76
2022/02/06 00:54:34;;;;;;;6.57;1.88;;;26.50;99.90;;;;;;5074120;28;20017;-76
2022/02/06 00:57:01;;;;;;;10.10;2.20;;;26.50;99.90;;;;;;5074073;28;20024;-76
2022/02/06 00:59:29;;;;;;;6.50;1.65;;;26.20;99.90;;;;;;5072554;28;20021;-76
2022/02/06 01:01:56;;;;;;;6.70;1.58;;;26.20;99.90;;;;;;5073917;28;20044;-77
2022/02/06 01:04:24;;;;;;;7.20;1.92;;;26.90;99.90;;;;;;5072195;28;20070;-76
2022/02/06 01:06:51;;;;;;;8.25;1.60;;;27.00;99.90;;;;;;5072304;28;20111;-76
2022/02/06 01:09:18;;;;;;;4.13;1.33;;;26.60;99.90;;;;;;5072349;28;20115;-77
2022/02/06 01:11:48;;;;;;;6.65;1.65;;;27.00;99.60;;;;;;5073709;28;20047;-76
2022/02/06 01:17:02;;;;;;;7.00;1.40;;;26.70;99.90;;;;;;5073492;28;20312;-76
2022/02/06 01:19:39;;;;;;;7.80;1.48;;;26.20;99.90;;;;;;5073429;28;20059;-76
2022/02/06 01:22:10;;;;;;;7.78;1.63;;;26.00;99.90;;;;;;5072095;28;20039;-75
2022/02/06 01:24:56;;;;;;;6.90;2.00;;;25.70;99.90;;;;;;5073478;28;20065;-75
2022/02/06 01:27:34;;;;;;;7.32;1.50;;;25.80;99.90;;;;;;5073546;28;20025;-75
2022/02/06 01:30:12;;;;;;;7.07;1.52;;;26.60;99.90;;;;;;5073278;28;20036;-75
2022/02/06 01:32:49;;;;;;;6.50;1.60;;;26.70;99.90;;;;;;5072114;28;20166;-75
2022/02/06 01:35:25;;;;;;;4.13;1.10;;;27.00;99.90;;;;;;5073452;28;20496;-76
2022/02/06 01:38:58;;;;;;;6.78;1.30;;;26.10;99.90;;;;;;5073279;28;20030;-75
2022/02/06 01:40:53;;;;;;;7.18;1.40;;;25.80;99.90;;;;;;5065682;28;20401;-75
2022/02/06 01:43:27;;;;;;;10.63;2.10;;;25.60;99.90;;;;;;5073309;28;20103;-74
2022/02/06 02:02:50;;;;;;;12.27;2.47;;;23.60;99.90;;;;;;5073064;28;20155;-74
2022/02/06 02:13:58;;;;;;;6.47;1.73;;;25.00;99.90;;;;;;5072973;28;20025;-75
2022/02/06 02:22:36;;;;;;;10.10;1.58;;;25.40;99.90;;;;;;5072796;28;20031;-75
2022/02/06 02:25:22;;;;;;;5.38;1.10;;;25.50;99.90;;;;;;5072485;28;20506;-74
2022/02/06 02:33:43;;;;;;;9.27;1.48;;;25.90;99.90;;;;;;5072794;28;20024;-74
2022/02/06 02:44:57;;;;;;;8.50;1.23;;;26.70;99.90;;;;;;5072723;28;20039;-75
2022/02/06 02:47:21;;;;;;;5.72;1.48;;;26.60;99.90;;;;;;5072382;28;20457;-74
2022/02/06 02:49:53;;;;;;;7.70;1.25;;;27.00;99.90;;;;;;5072680;28;20024;-74
2022/02/06 02:55:26;;;;;;;7.72;2.30;;;27.00;99.90;;;;;;5072576;28;20024;-74
2022/02/06 03:03:23;;;;;;;7.53;1.40;;;27.10;99.90;;;;;;5076468;28;20050;-75
2022/02/06 03:05:53;;;;;;;7.72;1.70;;;27.10;99.90;;;;;;5076383;28;20397;-75
2022/02/06 03:08:22;;;;;;;8.18;1.83;;;27.50;99.90;;;;;;5076276;28;20188;-74
2022/02/06 03:10:51;;;;;;;8.48;1.70;;;27.50;99.90;;;;;;5076206;28;20021;-75
2022/02/06 03:13:22;;;;;;;12.75;2.65;;;26.70;99.90;;;;;;5074856;28;20025;-76
2022/02/06 03:18:27;;;;;;;21.42;3.60;;;23.50;99.90;;;;;;5075968;28;19904;-75
2022/02/06 03:20:55;;;;;;;16.65;2.72;;;22.60;99.90;;;;;;5076008;28;20035;-74
2022/02/06 03:23:24;;;;;;;10.55;2.20;;;22.40;99.90;;;;;;5075864;28;20096;-74
2022/02/06 03:25:53;;;;;;;9.23;1.85;;;22.10;99.90;;;;;;5075907;28;20036;-74
2022/02/06 03:28:22;;;;;;;10.10;1.77;;;22.00;99.90;;;;;;5075770;28;20024;-74
2022/02/06 03:30:49;;;;;;;9.88;1.95;;;22.20;99.90;;;;;;5075867;28;20470;-74
2022/02/06 03:33:17;;;;;;;7.85;1.33;;;23.20;99.90;;;;;;5075799;28;20435;-75
2022/02/06 03:35:46;;;;;;;6.28;1.48;;;23.50;99.90;;;;;;5075741;28;20389;-75
2022/02/06 03:38:13;;;;;;;10.63;1.80;;;23.10;99.90;;;;;;5075555;28;20485;-74
2022/02/06 03:41:03;;;;;;;9.15;1.65;;;22.40;99.90;;;;;;5075709;28;20017;-74
2022/02/06 03:51:49;;;;;;;9.20;1.73;;;23.10;99.90;;;;;;5052167;28;20047;-75
2022/02/06 03:54:17;;;;;;;8.05;1.48;;;23.20;99.90;;;;;;5075276;28;20082;-75
2022/02/06 03:56:47;;;;;;;12.30;1.83;;;23.50;99.90;;;;;;5075138;28;20032;-73
2022/02/06 03:59:14;;;;;;;11.38;2.00;;;23.80;99.90;;;;;;5073891;28;20073;-75
2022/02/06 04:01:42;;;;;;;9.82;1.92;;;24.50;99.90;;;;;;5073860;28;20028;-75
2022/02/06 04:04:10;;;;;;;8.55;1.50;;;24.60;99.90;;;;;;5075077;28;20032;-73
2022/02/06 04:06:38;;;;;;;12.90;2.17;;;25.20;99.90;;;;;;5075125;28;20385;-75
2022/02/06 04:09:12;;;;;;;9.05;1.77;;;25.40;99.90;;;;;;5074714;28;20362;-78
2022/02/06 04:11:52;;;;;;;6.82;1.52;;;26.10;99.90;;;;;;5073650;28;20032;-76
2022/02/06 04:14:32;;;;;;;8.38;1.52;;;26.00;99.90;;;;;;5075389;28;20053;-78
2022/02/06 04:17:08;;;;;;;7.97;1.80;;;25.80;99.90;;;;;;5074801;28;20051;-75
2022/02/06 04:19:35;;;;;;;10.55;1.98;;;25.50;99.90;;;;;;5073689;28;20031;-77
2022/02/06 04:22:02;;;;;;;8.27;1.20;;;25.30;99.90;;;;;;5075109;28;20020;-78
2022/02/06 04:24:30;;;;;;;7.30;1.50;;;25.40;99.90;;;;;;5074807;28;20066;-77
2022/02/06 04:26:57;;;;;;;5.35;1.23;;;25.20;99.90;;;;;;5075182;28;20038;-77
2022/02/06 04:29:24;;;;;;;5.50;1.60;;;25.90;99.90;;;;;;5073357;28;20036;-77
2022/02/06 04:31:52;;;;;;;7.35;1.52;;;26.00;99.90;;;;;;5074754;28;20056;-77
2022/02/06 04:34:24;;;;;;;8.52;1.83;;;25.70;99.90;;;;;;5073224;28;20512;-77
2022/02/06 04:37:05;;;;;;;7.68;1.67;;;26.10;99.90;;;;;;5074754;28;20030;-78
2022/02/06 04:47:41;;;;;;;6.72;1.50;;;25.60;99.90;;;;;;5074306;28;20533;-77
2022/02/06 04:53:12;;;;;;;6.03;1.63;;;26.10;99.90;;;;;;5074504;28;20036;-77
2022/02/06 05:10:51;;;;;;;8.27;1.65;;;26.30;99.90;;;;;;5073786;28;20028;-78
2022/02/06 05:15:27;;;;;;;7.07;1.67;;;25.00;99.90;;;;;;5073930;28;20070;-79
2022/02/06 05:28:35;;;;;;;8.93;2.17;;;25.40;99.90;;;;;;5073425;28;20024;-79
2022/02/06 05:31:08;;;;;;;7.22;1.75;;;25.30;99.90;;;;;;5073048;28;20031;-79
2022/02/06 05:33:36;;;;;;;9.73;1.60;;;25.20;99.90;;;;;;5073272;28;20020;-78
2022/02/06 05:36:07;;;;;;;14.05;1.92;;;25.80;99.90;;;;;;5073015;28;20074;-79
2022/02/06 05:38:35;;;;;;;8.05;1.92;;;25.60;99.90;;;;;;5073249;28;20026;-76
2022/02/06 05:41:04;;;;;;;8.60;1.80;;;24.90;99.90;;;;;;5073525;28;20013;-77
2022/02/06 05:43:31;;;;;;;8.63;1.77;;;24.40;99.90;;;;;;5071749;28;20378;-76
2022/02/06 05:45:58;;;;;;;7.80;1.70;;;24.00;99.90;;;;;;5071748;28;20052;-75
2022/02/06 05:48:26;;;;;;;10.88;1.73;;;23.40;99.90;;;;;;5072977;28;20056;-75
2022/02/06 05:50:53;;;;;;;13.20;2.03;;;23.10;99.90;;;;;;5073178;28;20043;-74
2022/02/06 05:53:21;;;;;;;10.60;1.70;;;22.90;99.90;;;;;;5073090;28;20025;-75
2022/02/06 05:55:48;;;;;;;10.45;1.83;;;22.90;99.90;;;;;;5073029;28;20070;-76
2022/02/06 05:58:15;;;;;;;14.60;2.15;;;22.70;99.90;;;;;;5071665;28;20469;-76
2022/02/06 06:00:43;;;;;;;9.52;2.13;;;23.00;99.90;;;;;;5072977;28;20013;-76
2022/02/06 06:03:10;;;;;;;8.32;2.35;;;23.10;99.90;;;;;;5073235;28;20078;-77
2022/02/06 06:05:37;;;;;;;10.52;1.70;;;23.40;99.90;;;;;;5073055;28;20051;-76
2022/02/06 06:08:05;;;;;;;10.20;1.50;;;24.30;99.90;;;;;;5071787;28;20056;-78
2022/02/06 06:10:32;;;;;;;8.23;1.58;;;24.60;99.90;;;;;;5073070;28;20058;-79
2022/02/06 06:13:01;;;;;;;8.55;2.00;;;24.60;99.90;;;;;;5071521;28;20392;-76
2022/02/06 06:15:32;;;;;;;10.60;1.60;;;24.20;99.90;;;;;;5072971;28;20025;-79
2022/02/06 06:18:04;;;;;;;7.28;1.73;;;23.80;99.90;;;;;;5071605;28;20047;-78
2022/02/06 06:20:33;;;;;;;7.70;1.90;;;23.30;99.90;;;;;;5073159;28;20472;-78
2022/02/06 06:23:01;;;;;;;7.80;1.50;;;23.00;99.90;;;;;;5072878;28;20103;-77
2022/02/06 06:25:35;;;;;;;7.15;1.48;;;22.70;99.90;;;;;;5072896;28;20021;-78
2022/02/06 06:28:03;;;;;;;9.75;1.63;;;22.60;99.90;;;;;;5071433;28;20032;-79
2022/02/06 06:30:30;;;;;;;8.20;2.60;;;23.00;99.90;;;;;;5071486;28;20036;-78
2022/02/06 06:32:57;;;;;;;9.15;1.98;;;23.90;99.90;;;;;;5072893;28;20029;-78
2022/02/06 06:35:25;;;;;;;7.72;1.80;;;24.20;99.90;;;;;;5077227;28;20108;-77
2022/02/06 06:37:52;;;;;;;9.13;1.73;;;24.70;99.90;;;;;;5075394;28;20060;-78
2022/02/06 06:40:20;;;;;;;6.93;1.85;;;24.60;99.90;;;;;;5076762;28;20132;-80
2022/02/06 06:42:47;;;;;;;6.82;1.83;;;25.20;99.90;;;;;;5076152;28;20094;-80
2022/02/06 06:45:14;;;;;;;5.60;1.30;;;25.40;99.90;;;;;;5076792;28;20016;-79
2022/02/06 06:47:49;;;;;;;9.00;1.63;;;26.20;99.90;;;;;;5076551;28;20036;-78
2022/02/06 06:50:16;;;;;;;10.15;5.70;;;26.20;99.90;;;;;;5075952;28;20036;-79
2022/02/06 06:52:45;;;;;;;7.55;2.13;;;26.60;99.90;;;;;;5076448;28;20100;-78
2022/02/06 06:55:17;;;;;;;6.20;1.40;;;26.50;99.90;;;;;;5076718;28;20048;-79
2022/02/06 06:57:52;;;;;;;6.13;1.77;;;26.30;99.90;;;;;;5074937;28;20469;-79
2022/02/06 07:00:23;;;;;;;8.82;1.50;;;26.50;99.90;;;;;;5076323;28;20025;-78
2022/02/06 07:02:51;;;;;;;10.63;1.98;;;26.70;99.90;;;;;;5074962;28;20056;-79
2022/02/06 07:05:19;;;;;;;10.75;1.85;;;26.10;99.90;;;;;;5081265;28;20457;-79
2022/02/06 07:07:46;;;;;;;9.45;1.63;;;25.30;99.90;;;;;;5076747;28;20032;-79
2022/02/06 07:10:13;;;;;;;8.85;2.30;;;24.80;99.90;;;;;;5074744;28;20101;-79
2022/02/06 07:12:41;;;;;;;10.45;2.53;;;24.80;99.90;;;;;;5076170;28;20024;-79
2022/02/06 07:15:08;;;;;;;11.38;1.75;;;24.40;99.90;;;;;;5074582;28;20052;-78
2022/02/06 07:17:36;;;;;;;12.48;2.38;;;24.10;99.90;;;;;;5075905;28;20043;-77
2022/02/06 07:20:04;;;;;;;10.52;2.30;;;23.80;99.90;;;;;;5076056;28;20032;-77
2022/02/06 07:22:35;;;;;;;7.35;1.67;;;23.80;99.90;;;;;;5075866;28;20020;-78
2022/02/06 07:25:03;;;;;;;8.70;1.98;;;23.60;99.90;;;;;;5075911;28;20016;-77
2022/02/06 07:27:35;;;;;;;7.45;1.73;;;23.50;99.90;;;;;;5075690;28;20082;-77
2022/02/06 07:30:05;;;;;;;10.43;1.83;;;23.60;99.90;;;;;;5074464;28;20102;-77
2022/02/06 07:32:36;;;;;;;11.20;2.15;;;23.50;99.90;;;;;;5075841;28;20043;-78
2022/02/06 07:35:05;;;;;;;11.93;2.05;;;22.70;99.90;;;;;;5076244;28;20017;-79
2022/02/06 07:37:33;;;;;;;7.13;1.40;;;21.90;99.90;;;;;;5074211;28;20533;-78
2022/02/06 07:40:00;;;;;;;5.38;1.23;;;21.60;99.90;;;;;;5075671;28;20032;-78
2022/02/06 07:42:28;;;;;;;6.72;1.27;;;21.40;99.90;;;;;;5075688;28;20493;-77
2022/02/06 07:44:55;;;;;;;6.15;1.40;;;21.20;99.90;;;;;;5074604;28;20497;-77
2022/02/06 07:47:24;;;;;;;5.57;1.30;;;21.00;99.90;;;;;;5074154;28;20036;-78
2022/02/06 07:49:57;;;;;;;5.90;1.30;;;21.00;99.90;;;;;;5074256;28;20032;-79
2022/02/06 07:52:26;;;;;;;8.32;1.13;;;21.00;99.90;;;;;;5075346;28;20104;-77
2022/02/06 07:54:54;;;;;;;10.70;1.70;;;21.10;99.90;;;;;;5075186;28;20031;-78
2022/02/06 07:57:21;;;;;;;13.02;2.17;;;21.10;99.90;;;;;;5075268;28;20024;-78
2022/02/06 07:59:49;;;;;;;13.23;2.17;;;21.10;99.90;;;;;;5075185;28;20377;-78
2022/02/06 08:02:16;;;;;;;11.40;1.90;;;21.10;99.90;;;;;;5075280;28;20063;-77
2022/02/06 08:04:49;;;;;;;13.13;2.20;;;21.00;99.90;;;;;;5073613;28;20508;-78
2022/02/06 08:07:16;;;;;;;12.18;1.98;;;21.00;99.90;;;;;;5075140;28;20024;-78
2022/02/06 08:09:58;;;;;;;10.98;2.88;;;21.10;99.90;;;;;;5075000;28;20477;-78
2022/02/06 08:12:29;;;;;;;11.07;2.03;;;21.00;99.90;;;;;;5075118;28;20016;-78
2022/02/06 08:15:00;;;;;;;12.43;2.28;;;21.00;99.90;;;;;;5074933;28;20476;-77
2022/02/06 08:17:38;;;;;;;8.50;2.05;;;21.00;99.90;;;;;;5074739;28;20040;-79
2022/02/06 08:20:12;;;;;;;8.52;1.77;;;21.00;99.90;;;;;;5073520;28;20020;-78
2022/02/06 08:22:41;;;;;;;10.52;1.77;;;21.10;99.90;;;;;;5073626;28;20027;-79
2022/02/06 08:25:10;;;;;;;11.88;1.70;;;21.20;99.90;;;;;;5074804;28;20013;-78
2022/02/06 08:27:38;;;;;;;9.60;1.95;;;21.20;99.90;;;;;;5074734;28;20021;-79
2022/02/06 08:30:06;;;;;;;7.97;2.00;;;21.30;99.90;;;;;;5073251;28;20029;-78
2022/02/06 08:32:34;;;;;;;8.82;2.33;;;21.20;99.90;;;;;;5073414;28;20035;-78
2022/02/06 08:35:02;;;;;;;11.38;2.22;;;21.10;99.90;;;;;;5073194;28;20033;-78
2022/02/06 08:37:29;;;;;;;9.43;1.73;;;21.00;99.90;;;;;;5073166;28;20481;-77
2022/02/06 08:39:57;;;;;;;8.48;1.90;;;20.90;99.90;;;;;;5073207;28;20017;-78
2022/02/06 08:42:24;;;;;;;10.63;1.67;;;20.90;99.90;;;;;;5073060;28;20021;-78
2022/02/06 08:44:52;;;;;;;11.70;2.13;;;20.80;99.90;;;;;;5074341;28;20070;-78
2022/02/06 08:47:20;;;;;;;14.10;1.90;;;20.70;99.90;;;;;;5074317;28;20027;-77
2022/02/06 08:49:48;;;;;;;11.13;2.40;;;20.60;99.90;;;;;;5074268;28;20052;-77
2022/02/06 08:52:16;;;;;;;10.05;2.67;;;20.60;99.90;;;;;;5074551;28;20020;-78
2022/02/06 08:54:45;;;;;;;11.10;1.85;;;20.50;99.90;;;;;;5072965;28;20374;-78
2022/02/06 08:57:20;;;;;;;12.65;2.20;;;20.50;99.90;;;;;;5072968;28;20020;-77
2022/02/06 08:59:47;;;;;;;10.20;2.40;;;20.40;99.90;;;;;;5074099;28;20020;-77
2022/02/06 09:02:15;;;;;;;7.93;2.30;;;20.40;99.90;;;;;;5073862;28;20093;-78
2022/02/06 09:04:47;;;;;;;8.90;1.60;;;20.40;99.90;;;;;;5072523;28;20027;-77
2022/02/06 09:07:15;;;;;;;9.18;1.65;;;20.40;99.90;;;;;;5073871;28;20024;-78
2022/02/06 09:09:47;;;;;;;8.75;1.83;;;20.40;99.90;;;;;;5073821;28;20162;-77
2022/02/06 09:12:15;;;;;;;10.00;2.67;;;20.40;99.90;;;;;;5072505;28;20507;-76
2022/02/06 09:14:43;;;;;;;8.30;1.27;;;20.40;99.90;;;;;;5072436;28;20113;-79
2022/02/06 09:17:10;;;;;;;7.25;1.60;;;20.40;99.90;;;;;;5072177;28;20052;-80
2022/02/06 09:19:39;;;;;;;7.38;1.55;;;20.40;99.90;;;;;;5072366;28;20024;-78
2022/02/06 09:22:08;;;;;;;11.02;2.42;;;21.70;99.90;;;;;;5072329;28;20036;-79
2022/02/06 09:24:36;;;;;;;11.63;2.25;;;20.50;99.90;;;;;;5072284;28;20021;-78
2022/02/06 09:27:04;;;;;;;8.57;2.28;;;20.50;99.90;;;;;;5073718;28;20042;-80
2022/02/06 09:29:32;;;;;;;7.28;1.70;;;20.50;99.90;;;;;;5072335;28;20052;-79
2022/02/06 09:37:07;;;;;;;10.48;1.90;;;20.50;99.90;;;;;;5073633;28;20024;-79
2022/02/06 09:39:41;;;;;;;8.52;1.40;;;20.40;99.90;;;;;;5072195;28;20020;-80
2022/02/06 09:42:09;;;;;;;7.10;1.40;;;20.50;99.90;;;;;;5072183;28;20020;-79
2022/02/06 09:44:38;;;;;;;8.32;1.90;;;20.50;99.90;;;;;;5071995;28;20021;-80
2022/02/06 09:47:06;;;;;;;5.75;1.92;;;20.50;99.90;;;;;;5073376;28;20544;-81
2022/02/06 09:49:34;;;;;;;11.75;2.00;;;20.60;99.90;;;;;;5071936;28;20024;-79
2022/02/06 09:52:02;;;;;;;9.80;2.05;;;20.70;99.90;;;;;;5072061;28;20063;-79
2022/02/06 09:54:30;;;;;;;11.93;2.20;;;20.70;99.90;;;;;;5071998;28;20115;-79
2022/02/06 09:57:00;;;;;;;12.05;1.70;;;20.70;99.90;;;;;;5073513;28;20021;-79
2022/02/06 09:59:35;;;;;;;11.45;1.60;;;20.70;99.90;;;;;;5073453;28;20032;-81
2022/02/06 10:02:04;;;;;;;9.20;1.73;;;20.70;99.90;;;;;;5072471;28;20035;-80
2022/02/06 10:04:34;;;;;;;8.30;1.67;;;20.70;99.90;;;;;;5071870;28;20115;-79
2022/02/06 10:07:08;;;;;;;12.33;1.60;;;20.60;99.90;;;;;;5072884;28;20485;-79
2022/02/06 10:09:41;;;;;;;11.50;1.67;;;20.60;99.90;;;;;;5073202;28;20249;-80
2022/02/06 10:12:09;;;;;;;8.15;1.63;;;20.50;99.90;;;;;;5073277;28;20020;-80
2022/02/06 10:14:37;;;;;;;7.70;1.60;;;20.20;99.90;;;;;;5071709;28;20174;-80
2022/02/06 10:17:05;;;;;;;11.65;2.28;;;19.80;99.90;;;;;;5071496;28;20040;-79
2022/02/06 10:19:38;;;;;;;15.45;2.95;;;19.30;99.90;;;;;;5071998;28;20048;-79
2022/02/06 10:25:30;;;;;;;12.15;3.13;;;18.50;99.90;;;;;;5063669;28;20107;-79
2022/02/06 10:30:51;;;;;;;9.75;2.20;;;18.20;99.90;;;;;;5072963;28;20020;-79
2022/02/06 10:33:23;;;;;;;10.05;2.25;;;18.30;99.90;;;;;;5071683;28;20385;-79
2022/02/06 10:35:57;;;;;;;9.25;1.55;;;18.30;99.90;;;;;;5071745;28;20028;-77
2022/02/06 10:38:27;;;;;;;15.30;2.67;;;18.30;99.90;;;;;;5072850;28;20385;-78
2022/02/06 10:41:06;;;;;;;15.02;2.65;;;18.30;99.90;;;;;;5071395;28;20017;-77
2022/02/06 10:43:34;;;;;;;13.40;3.03;;;18.20;99.90;;;;;;5071387;28;20029;-77
2022/02/06 10:46:13;;;;;;;7.60;2.10;;;18.20;99.90;;;;;;5071414;28;20074;-79
2022/02/06 10:48:52;;;;;;;10.52;2.80;;;18.20;99.90;;;;;;5072638;28;20055;-79
2022/02/06 10:51:37;;;;;;;13.50;2.47;;;18.20;99.90;;;;;;5072580;28;20025;-79
2022/02/06 10:54:11;;;;;;;11.80;2.50;;;18.20;99.90;;;;;;5072582;28;20017;-80
2022/02/06 10:57:04;;;;;;;16.05;2.55;;;18.20;99.90;;;;;;5072471;28;20029;-81
2022/02/06 10:59:58;;;;;;;13.18;2.90;;;18.30;99.90;;;;;;5073447;28;20021;-78
2022/02/06 11:02:29;;;;;;;12.00;2.13;;;18.30;99.90;;;;;;5070567;28;20397;-77
2022/02/06 11:07:55;;;;;;;10.02;1.73;;;18.40;99.90;;;;;;5072524;28;20021;-77
2022/02/06 11:10:24;;;;;;;14.95;2.63;;;18.40;99.90;;;;;;5071177;28;20050;-77
2022/02/06 11:12:57;;;;;;;14.15;2.40;;;18.50;99.90;;;;;;5071646;28;20047;-78
2022/02/06 11:15:29;;;;;;;10.73;2.60;;;18.50;99.90;;;;;;5072357;28;20044;-78
2022/02/06 11:18:12;;;;;;;8.57;1.50;;;18.50;99.90;;;;;;5072428;28;20047;-80
2022/02/06 11:21:01;;;;;;;10.95;2.15;;;18.50;99.90;;;;;;5074902;28;20027;-82
2022/02/06 11:23:40;;;;;;;10.65;1.67;;;18.50;99.90;;;;;;5075122;28;20036;-81
2022/02/06 11:26:15;;;;;;;13.52;1.55;;;18.40;99.90;;;;;;5076016;28;20495;-82
2022/02/06 11:28:42;;;;;;;8.13;2.10;;;18.50;99.90;;;;;;5076016;28;20023;-80
2022/02/06 11:31:09;;;;;;;8.75;1.20;;;18.50;99.90;;;;;;5076088;28;20493;-80
2022/02/06 11:33:37;;;;;;;8.63;1.58;;;18.40;99.90;;;;;;5075931;28;20047;-79
2022/02/06 11:36:12;;;;;;;14.02;1.80;;;18.40;99.90;;;;;;5075247;28;20017;-78
2022/02/06 11:45:03;;;;;;;10.95;2.03;;;18.50;99.90;;;;;;5076397;28;20023;-79
2022/02/06 11:47:42;;;;;;;7.18;1.50;;;18.50;99.90;;;;;;5074470;28;20033;-80
2022/02/06 11:50:12;;;;;;;15.40;1.50;;;18.50;99.90;;;;;;5075781;28;20052;-78
2022/02/06 11:52:59;;;;;;;16.55;2.95;;;18.50;99.90;;;;;;5074349;28;20375;-78
2022/02/06 11:55:44;;;;;;;11.38;1.65;;;18.50;99.90;;;;;;5074236;28;20067;-77
2022/02/06 11:58:26;;;;;;;12.70;2.85;;;18.50;99.90;;;;;;5075724;28;20404;-78
2022/02/06 12:01:16;;;;;;;11.85;2.00;;;18.50;99.90;;;;;;5075664;28;20362;-78
2022/02/06 12:04:00;;;;;;;11.95;1.92;;;18.40;99.90;;;;;;5064826;28;20035;-80
2022/02/06 12:06:37;;;;;;;17.13;2.42;;;18.40;99.90;;;;;;5075433;28;20091;-78
2022/02/06 12:09:05;;;;;;;12.68;1.80;;;18.30;99.90;;;;;;5075937;28;20028;-79
2022/02/06 12:11:36;;;;;;;10.75;2.40;;;18.30;99.90;;;;;;5074017;28;20481;-79
2022/02/06 12:14:22;;;;;;;14.05;2.15;;;18.40;99.90;;;;;;5073878;28;20021;-79
2022/02/06 12:20:13;;;;;;;11.68;2.33;;;18.40;99.90;;;;;;5075082;28;20021;-79
2022/02/06 12:22:43;;;;;;;11.82;2.30;;;18.40;99.90;;;;;;5075091;28;20546;-80
2022/02/06 12:25:35;;;;;;;15.52;2.38;;;18.50;99.90;;;;;;5075038;28;20099;-80
2022/02/06 12:28:22;;;;;;;14.65;2.80;;;18.50;99.90;;;;;;5075072;28;20473;-79
2022/02/06 12:31:13;;;;;;;15.85;3.72;;;18.50;99.90;;;;;;5074678;28;20516;-80
2022/02/06 12:33:52;;;;;;;15.65;3.05;;;18.60;99.90;;;;;;5073507;28;20021;-80
2022/02/06 12:37:08;;;;;;;17.15;3.00;;;18.70;99.90;;;;;;5074802;28;20023;-79
2022/02/06 12:39:36;;;;;;;12.13;2.47;;;18.80;99.90;;;;;;5074129;28;20115;-81
2022/02/06 12:42:09;;;;;;;18.98;3.30;;;18.80;99.90;;;;;;5074591;28;20021;-79
2022/02/06 12:44:37;;;;;;;11.52;2.45;;;18.70;99.90;;;;;;5074629;28;20013;-80
2022/02/06 12:47:11;;;;;;;16.92;3.00;;;18.60;99.90;;;;;;5073113;28;20028;-79
2022/02/06 12:49:41;;;;;;;13.73;3.00;;;18.50;99.90;;;;;;5073087;28;20027;-80
2022/02/06 12:52:09;;;;;;;12.57;2.25;;;18.50;99.90;;;;;;5074355;28;20481;-80
2022/02/06 12:54:37;;;;;;;11.32;2.03;;;18.50;99.90;;;;;;5072965;28;20025;-80
2022/02/06 12:57:05;;;;;;;10.60;1.77;;;18.50;99.90;;;;;;5072820;28;20025;-79
2022/02/06 12:59:33;;;;;;;14.38;2.17;;;18.40;99.90;;;;;;5072841;28;20067;-80
2022/02/06 13:02:01;;;;;;;14.57;2.67;;;18.40;99.90;;;;;;5074032;28;20066;-79
2022/02/06 13:04:31;;;;;;;15.93;3.33;;;18.40;99.90;;;;;;5074134;28;20378;-78
2022/02/06 13:07:04;;;;;;;13.30;2.47;;;18.40;99.90;;;;;;5074038;28;20066;-78
2022/02/06 13:09:52;;;;;;;13.13;1.90;;;18.30;99.90;;;;;;5073994;28;20288;-80
2022/02/06 13:12:30;;;;;;;7.40;1.70;;;18.30;99.90;;;;;;5074034;28;20098;-79
2022/02/06 13:23:05;;;;;;;;;;;18.20;99.90;;;;;;5074177;28;20044;-78
2022/02/06 13:25:51;;;;;;;9.25;2.00;;;18.10;99.90;;;;;;5072296;28;19911;-79
2022/02/06 13:28:35;;;;;;;7.93;1.75;;;17.90;99.90;;;;;;5072225;28;20029;-78
2022/02/06 13:31:34;;;;;;;14.68;2.67;;;17.80;99.90;;;;;;5072213;28;20389;-78
2022/02/06 13:36:43;;;;;;;13.43;1.92;;;17.70;99.90;;;;;;5073486;28;20024;-78
2022/02/06 13:39:56;;;;;;;17.35;2.78;;;17.70;99.90;;;;;;5073551;28;20025;-78
2022/02/06 13:42:16;;;;;;;13.73;2.50;;;17.80;99.90;;;;;;5070494;28;20091;-78
2022/02/06 13:44:46;;;;;;;15.27;2.22;;;17.80;99.90;;;;;;5073364;28;20044;-78
2022/02/06 13:47:13;;;;;;;13.85;2.45;;;17.70;99.90;;;;;;5073258;28;20086;-78
2022/02/06 13:49:46;;;;;;;14.93;1.88;;;17.70;99.90;;;;;;5073315;28;20016;-78
2022/02/06 13:52:14;;;;;;;13.63;2.33;;;17.70;99.90;;;;;;5073372;28;20028;-78
2022/02/06 13:54:47;;;;;;;15.70;2.65;;;17.80;99.90;;;;;;5073176;28;20024;-79
2022/02/06 13:57:15;;;;;;;9.48;1.90;;;17.80;99.90;;;;;;5073176;28;20431;-79
2022/02/06 13:59:43;;;;;;;8.43;2.25;;;17.80;99.90;;;;;;5071902;28;20409;-79
2022/02/06 14:02:12;;;;;;;11.85;2.22;;;17.70;99.90;;;;;;5073017;28;20099;-78
2022/02/06 14:04:43;;;;;;;8.48;1.50;;;17.70;99.90;;;;;;5071563;28;20029;-78
2022/02/06 14:07:15;;;;;;;12.98;1.90;;;17.70;99.90;;;;;;5071656;28;20431;-77
2022/02/06 14:12:20;;;;;;;9.68;1.65;;;17.60;99.90;;;;;;5072763;28;20023;-77
2022/02/06 14:14:55;;;;;;;6.82;1.67;;;17.40;99.90;;;;;;5072874;28;20029;-75
2022/02/06 14:17:42;;;;;;;5.97;1.20;;;17.30;99.90;;;;;;5072598;28;20049;-77
2022/02/06 14:20:11;;;;;;;7.43;1.45;;;17.10;99.90;;;;;;5072740;28;20082;-78
2022/02/06 14:22:44;;;;;;;6.43;1.00;;;17.20;99.90;;;;;;5072722;28;20025;-79
2022/02/06 14:25:22;;;;;;;6.10;1.00;;;17.20;99.90;;;;;;5072837;28;20527;-79
2022/02/06 14:27:50;;;;;;;8.45;1.15;;;17.20;99.90;;;;;;5072708;28;20025;-80
2022/02/06 14:30:22;;;;;;;8.25;1.92;;;17.20;99.90;;;;;;5072585;28;20096;-79
2022/02/06 14:33:18;;;;;;;8.13;1.88;;;17.30;99.90;;;;;;5072606;28;20024;-79
2022/02/06 14:35:59;;;;;;;11.82;1.80;;;17.30;99.90;;;;;;5071315;28;20036;-79
2022/02/06 14:38:34;;;;;;;15.10;1.83;;;17.40;99.90;;;;;;5072563;28;20029;-79
2022/02/06 14:41:19;;;;;;;10.50;2.45;;;17.40;99.90;;;;;;5072569;28;20045;-79
2022/02/06 14:43:57;;;;;;;9.75;1.60;;;17.40;99.90;;;;;;5072555;28;20381;-78
2022/02/06 14:46:26;;;;;;;8.95;1.70;;;17.50;99.90;;;;;;5072593;28;20017;-80
2022/02/06 14:48:54;;;;;;;15.15;2.50;;;17.50;99.90;;;;;;5072508;28;20066;-79
2022/02/06 14:51:22;;;;;;;10.52;1.92;;;17.50;99.90;;;;;;5072433;28;20027;-79
2022/02/06 14:53:55;;;;;;;11.25;2.22;;;17.60;99.90;;;;;;5073684;28;20489;-79
2022/02/06 14:56:22;;;;;;;11.23;1.88;;;17.60;99.90;;;;;;5075027;28;20116;-79
2022/02/06 14:58:50;;;;;;;11.68;1.80;;;17.70;99.90;;;;;;5076367;28;20071;-78
2022/02/06 15:01:17;;;;;;;9.25;1.90;;;17.70;99.90;;;;;;5076269;28;20013;-79
2022/02/06 15:03:44;;;;;;;5.88;1.75;;;17.70;99.90;;;;;;5076277;28;20031;-79
2022/02/06 15:06:12;;;;;;;15.57;2.00;;;17.70;99.90;;;;;;5076465;28;20016;-79
2022/02/06 15:08:39;;;;;;;8.68;1.45;;;17.80;99.90;;;;;;5076400;28;20033;-79
2022/02/06 15:11:06;;;;;;;9.82;1.42;;;17.80;99.90;;;;;;5076405;28;20469;-79
2022/02/06 15:13:34;;;;;;;11.02;1.52;;;17.90;99.90;;;;;;5076310;28;20021;-80
2022/02/06 15:16:12;;;;;;;6.35;1.15;;;18.00;99.90;;;;;;5074654;28;20139;-80
2022/02/06 15:18:46;;;;;;;10.80;1.50;;;18.00;99.90;;;;;;5076314;28;20056;-80
2022/02/06 15:21:13;;;;;;;9.10;1.80;;;18.10;99.90;;;;;;5076142;28;20098;-79
2022/02/06 15:23:42;;;;;;;7.30;1.40;;;18.10;99.90;;;;;;5076086;28;20362;-79
2022/02/06 15:26:09;;;;;;;8.50;1.30;;;18.20;99.90;;;;;;5076055;28;20025;-80
2022/02/06 15:28:37;;;;;;;8.80;1.48;;;18.20;99.90;;;;;;5076116;28;20016;-79
2022/02/06 15:31:04;;;;;;;8.65;1.45;;;18.10;99.90;;;;;;5074834;28;20035;-79
2022/02/06 15:33:31;;;;;;;8.60;1.52;;;17.90;99.90;;;;;;5075867;28;20052;-78
2022/02/06 15:35:59;;;;;;;8.10;1.33;;;17.80;99.90;;;;;;5075825;28;20112;-78
2022/02/06 15:38:31;;;;;;;7.70;1.23;;;17.70;99.90;;;;;;5074311;28;20025;-78